Terminal Aerodrome Forecast
Issued by NWS Milwaukee/Sullivan, WI

Home | Current Version | Previous Version | Text Only | Print | Product List | Glossary On
Versions: 1 2 3 4 5 6 7 8 9 10 11 12 13 14 15 16 17 18 19 20 21 22 23 24 25 26 27 28 29 30 31 32 33 34 35 36 37 38 39 40 41 42 43 44 45 46 47 48 49 50
000
FTUS43 KMKX 220520
TAFMKE
TAF
KMKE 220520Z 2206/2312 21011KT P6SM VCSH OVC020
     FM220900 21011KT 6SM -SHRA VCTS OVC015CB
     FM221200 21010KT 2SM TSRA BR OVC004CB
     FM222100 23008KT 3SM SHRA BR VCTS OVC006CB
     FM230200 30007KT 4SM SHRA BR OVC011
     FM230500 31010KT 5SM SHRA BKN019
     FM230600 31010KT P6SM BKN025
     FM230900 31009KT P6SM BKN035=

USA.gov is the U.S. government's official web portal to all federal, state and local government web resources and services.